Time;durP1;ratioP1;P1;durP2;ratioP2;P2;SDS_P1;SDS_P2;PMS_P1;PMS_P2;Temp;Humidity;BMP_temperature;BMP_pressure;BME280_temperature;BME280_humidity;BME280_pressure;Samples;Min_cycle;Max_cycle;Signal;HPM_P1;HPM_P2
2023/08/22 00:01:08;;;;;;;10.20;4.70;;;;;;;15.93;73.09;99001.78;4917563;29;20526;-71
2023/08/22 00:03:37;;;;;;;7.70;4.78;;;;;;;15.90;73.30;98980.63;4886320;29;20167;-73
2023/08/22 00:06:06;;;;;;;10.00;4.90;;;;;;;15.89;73.31;98994.22;4910397;29;20055;-72
2023/08/22 00:08:35;;;;;;;8.88;5.22;;;;;;;15.87;72.88;98980.94;4918717;29;20039;-75
2023/08/22 00:11:02;;;;;;;9.27;4.78;;;;;;;15.86;72.79;98981.91;4919185;29;20050;-75
2023/08/22 00:13:52;;;;;;;9.90;5.47;;;;;;;15.96;72.98;98973.75;4920652;28;20047;-79
2023/08/22 00:16:18;;;;;;;8.50;4.68;;;;;;;15.89;72.34;98967.31;4925669;28;20054;-77
2023/08/22 00:19:14;;;;;;;6.18;4.80;;;;;;;15.98;72.66;98972.59;4907486;28;20054;-78
2023/08/22 00:21:41;;;;;;;10.20;4.88;;;;;;;15.87;72.56;98970.19;4900540;29;20074;-75
2023/08/22 00:24:06;;;;;;;8.32;4.82;;;;;;;15.87;72.64;98985.47;4901077;29;20051;-76
2023/08/22 00:26:32;;;;;;;7.35;4.82;;;;;;;15.87;73.05;98969.31;4938396;28;20049;-73
2023/08/22 00:28:57;;;;;;;9.77;5.15;;;;;;;15.87;72.45;98963.94;4905017;28;20065;-76
2023/08/22 00:31:24;;;;;;;9.82;4.88;;;;;;;15.83;72.82;98973.31;4929386;28;20408;-79
2023/08/22 00:33:50;;;;;;;8.18;4.97;;;;;;;15.82;72.61;98987.75;4933674;28;20055;-72
2023/08/22 00:36:16;;;;;;;9.65;5.20;;;;;;;15.78;73.25;98976.50;4885831;29;21007;-76
2023/08/22 00:38:41;;;;;;;8.65;4.97;;;;;;;15.77;73.66;98957.84;4936239;28;20043;-76
2023/08/22 00:41:07;;;;;;;13.57;5.43;;;;;;;15.75;74.21;98966.06;4903955;28;20058;-77
2023/08/22 00:43:32;;;;;;;12.00;4.43;;;;;;;15.72;74.21;98961.00;4919714;28;20057;-73
2023/08/22 00:45:58;;;;;;;10.93;5.30;;;;;;;15.68;74.13;98956.97;4903608;28;20406;-74
2023/08/22 00:48:24;;;;;;;6.50;4.35;;;;;;;15.65;74.30;98972.56;4887895;28;20190;-75
2023/08/22 00:53:41;;;;;;;10.80;5.07;;;;;;;15.59;74.26;98971.31;4888229;28;20055;-77
2023/08/22 00:56:07;;;;;;;8.57;4.75;;;;;;;15.58;74.46;98951.69;4920373;28;20054;-79
2023/08/22 00:58:38;;;;;;;11.43;5.32;;;;;;;15.59;74.67;98966.78;4919443;28;20055;-75
2023/08/22 01:01:05;;;;;;;7.95;4.75;;;;;;;15.60;75.11;98935.41;4936889;28;20057;-76
2023/08/22 01:03:32;;;;;;;11.38;4.57;;;;;;;15.56;75.18;98932.22;4937055;28;20041;-78
2023/08/22 01:06:20;;;;;;;12.57;5.28;;;;;;;15.67;75.11;98924.88;4920063;28;20050;-78
2023/08/22 01:08:52;;;;;;;9.88;5.15;;;;;;;15.56;75.23;98926.84;4908164;28;20051;-75
2023/08/22 01:11:41;;;;;;;14.68;5.90;;;;;;;15.63;74.58;98934.25;4903873;28;20050;-75
2023/08/22 01:17:17;;;;;;;7.60;4.88;;;;;;;15.58;75.17;98922.13;4956659;28;20727;-76
2023/08/22 01:19:42;;;;;;;10.18;5.18;;;;;;;15.53;75.38;98912.84;4937832;28;20432;-77
2023/08/22 01:22:12;;;;;;;10.93;4.82;;;;;;;15.50;75.59;98923.88;4940234;28;20030;-79
2023/08/22 01:24:51;;;;;;;10.73;5.30;;;;;;;15.49;75.71;98939.16;4910673;28;20054;-79
2023/08/22 01:27:20;;;;;;;10.15;4.63;;;;;;;15.46;75.89;98931.41;4922655;28;20083;-75
2023/08/22 01:29:54;;;;;;;8.98;4.88;;;;;;;15.47;76.03;98913.44;4939049;28;20054;-74
2023/08/22 01:32:29;;;;;;;11.93;5.53;;;;;;;15.46;76.23;98922.53;4957432;28;20069;-75
2023/08/22 01:35:02;;;;;;;7.60;5.55;;;;;;;15.45;76.74;98921.69;4960043;28;20529;-75
2023/08/22 01:37:31;;;;;;;10.55;5.65;;;;;;;15.42;76.75;98916.63;4942030;28;20042;-75
2023/08/22 01:39:58;;;;;;;10.65;5.90;;;;;;;15.39;76.83;98925.00;4942369;28;20374;-75
2023/08/22 01:42:26;;;;;;;9.05;4.97;;;;;;;15.41;76.82;98919.47;4926744;28;20043;-75
2023/08/22 01:44:53;;;;;;;8.00;5.20;;;;;;;15.36;76.71;98927.97;4942475;28;20058;-78
2023/08/22 01:50:10;;;;;;;11.85;5.10;;;;;;;15.33;77.03;98912.22;4943243;28;20073;-77
2023/08/22 01:52:38;;;;;;;8.77;6.05;;;;;;;15.36;76.80;98911.03;4932704;28;20042;-78
2023/08/22 01:55:06;;;;;;;7.70;4.45;;;;;;;15.36;77.42;98909.19;4960133;28;20054;-79
2023/08/22 01:57:31;;;;;;;11.85;6.05;;;;;;;15.37;77.28;98908.19;4943577;28;20046;-81
2023/08/22 01:59:58;;;;;;;9.02;5.03;;;;;;;15.36;76.92;98909.19;4927566;28;20058;-79
2023/08/22 02:02:25;;;;;;;10.98;5.65;;;;;;;15.35;77.18;98937.03;4960776;28;20042;-78
2023/08/22 02:04:51;;;;;;;12.30;5.22;;;;;;;15.34;77.29;98910.38;4942697;28;20038;-79
2023/08/22 02:07:17;;;;;;;10.35;4.85;;;;;;;15.36;77.23;98922.63;4928062;28;20042;-79
2023/08/22 02:09:46;;;;;;;8.63;5.15;;;;;;;15.37;77.30;98908.19;4908990;28;20054;-79
2023/08/22 02:12:37;;;;;;;11.90;6.65;;;;;;;15.44;77.33;98903.88;4942640;28;20054;-78
2023/08/22 02:15:03;;;;;;;13.07;5.43;;;;;;;15.34;77.55;98902.31;4928792;28;20058;-79
2023/08/22 02:17:32;;;;;;;11.88;5.63;;;;;;;15.31;77.44;98906.16;4943851;28;20516;-78
2023/08/22 02:20:01;;;;;;;9.82;4.88;;;;;;;15.24;77.48;98913.97;4961992;28;20053;-82
2023/08/22 02:22:29;;;;;;;9.68;5.47;;;;;;;15.20;77.68;98911.78;4927473;28;20046;-80
2023/08/22 02:24:55;;;;;;;10.68;6.05;;;;;;;15.16;77.84;98862.06;4924318;28;20422;-80
2023/08/22 02:27:21;;;;;;;8.40;5.60;;;;;;;15.10;78.52;98862.72;4967489;28;20046;-77
2023/08/22 02:29:49;;;;;;;11.05;5.70;;;;;;;15.04;78.97;98891.00;4926819;28;20054;-75
2023/08/22 02:32:15;;;;;;;13.15;5.72;;;;;;;14.99;78.75;98903.22;4939105;28;20058;-76
2023/08/22 02:34:45;;;;;;;10.90;5.47;;;;;;;14.95;78.57;98880.38;4941405;28;20046;-72
2023/08/22 02:37:37;;;;;;;11.90;5.40;;;;;;;14.89;79.37;98904.16;4960636;28;20050;-77
2023/08/22 02:42:59;;;;;;;9.10;5.72;;;;;;;14.83;80.13;98891.34;4941546;28;20051;-77
2023/08/22 02:45:25;;;;;;;12.98;5.30;;;;;;;14.85;79.88;98864.34;4935445;28;20592;-71
2023/08/22 02:47:59;;;;;;;13.32;4.72;;;;;;;14.86;79.91;98892.88;4908661;28;20057;-75
2023/08/22 02:50:24;;;;;;;11.77;5.43;;;;;;;14.85;79.98;98892.03;4921661;28;20587;-75
2023/08/22 02:52:52;;;;;;;9.18;5.25;;;;;;;14.87;79.88;98876.63;4922234;28;20051;-75
2023/08/22 02:55:23;;;;;;;8.32;5.72;;;;;;;14.93;79.28;98890.41;4937682;28;20105;-70
2023/08/22 03:00:44;;;;;;;10.55;5.32;;;;;;;15.04;77.32;98879.44;4941464;28;20038;-73
2023/08/22 03:03:39;;;;;;;9.43;5.10;;;;;;;15.15;76.93;98871.13;4949532;28;20646;-74
2023/08/22 03:06:05;;;;;;;9.00;5.45;;;;;;;15.08;76.97;98865.53;4935644;28;20051;-74
2023/08/22 03:08:32;;;;;;;8.60;4.68;;;;;;;15.09;77.16;98871.75;4908513;28;20782;-73
2023/08/22 03:11:00;;;;;;;9.50;4.55;;;;;;;15.18;77.05;98878.88;4928178;28;20059;-73
2023/08/22 03:13:28;;;;;;;6.45;4.80;;;;;;;15.29;77.51;98873.22;4920256;28;20055;-73
2023/08/22 03:15:58;;;;;;;13.65;5.63;;;;;;;15.38;76.92;98872.28;4918525;28;20073;-69
2023/08/22 03:18:25;;;;;;;7.88;4.90;;;;;;;15.47;75.93;98876.69;4921522;28;20128;-73
2023/08/22 03:20:54;;;;;;;12.38;4.97;;;;;;;15.61;75.61;98867.22;4920393;28;20498;-70
2023/08/22 03:23:44;;;;;;;16.48;5.13;;;;;;;15.82;75.23;98864.97;4938237;28;20034;-70
2023/08/22 03:26:13;;;;;;;9.95;4.60;;;;;;;15.91;74.36;98858.63;4904934;28;20061;-71
2023/08/22 03:28:40;;;;;;;9.35;5.13;;;;;;;15.97;72.84;98854.44;4938334;28;20054;-71
2023/08/22 03:31:07;;;;;;;9.63;5.05;;;;;;;16.03;71.47;98856.47;4904629;28;20058;-69
2023/08/22 03:33:34;;;;;;;6.50;4.63;;;;;;;16.14;71.58;98858.06;4905034;28;20057;-69
2023/08/22 03:36:04;;;;;;;11.63;4.97;;;;;;;16.19;71.40;98866.44;4921361;28;20054;-70
2023/08/22 03:38:30;;;;;;;8.68;4.38;;;;;;;16.29;71.88;98835.72;4920891;28;20402;-70
2023/08/22 03:40:56;;;;;;;9.07;4.85;;;;;;;16.37;71.82;98834.03;4920877;28;20062;-70
2023/08/22 03:43:23;;;;;;;9.52;4.68;;;;;;;16.46;71.79;98839.28;4920857;28;20042;-70
2023/08/22 03:46:15;;;;;;;9.50;5.32;;;;;;;16.64;71.57;98839.16;4920684;28;20055;-70
2023/08/22 03:48:41;;;;;;;7.57;4.70;;;;;;;16.63;70.92;98832.06;4937899;28;20482;-70
2023/08/22 03:51:09;;;;;;;8.85;4.20;;;;;;;16.72;70.27;98831.06;4920563;28;20050;-71
2023/08/22 03:53:42;;;;;;;10.00;4.93;;;;;;;16.78;69.30;98830.41;4904931;28;20421;-70
2023/08/22 03:56:07;;;;;;;8.82;4.80;;;;;;;16.89;68.67;98832.75;4920044;28;20052;-70
2023/08/22 03:58:37;;;;;;;10.35;5.28;;;;;;;17.12;68.00;98832.06;4920174;28;20045;-70
2023/08/22 04:01:03;;;;;;;10.02;5.13;;;;;;;17.36;67.24;98862.50;4920582;28;20053;-70
2023/08/22 04:03:30;;;;;;;12.77;6.05;;;;;;;17.58;66.39;98842.06;4920567;28;20881;-69
2023/08/22 04:06:03;;;;;;;12.18;5.35;;;;;;;17.72;65.48;98837.78;4930473;28;20043;-70
2023/08/22 04:08:28;;;;;;;14.32;6.38;;;;;;;17.76;64.55;98825.66;4937581;28;20043;-70
2023/08/22 04:10:54;;;;;;;13.25;6.45;;;;;;;17.73;64.23;98836.78;4919587;28;20494;-71
2023/08/22 04:13:24;;;;;;;12.48;7.18;;;;;;;17.63;64.15;98836.16;4920784;28;20042;-70
2023/08/22 04:15:50;;;;;;;15.63;7.40;;;;;;;17.50;64.37;98836.66;4930446;28;20050;-72
2023/08/22 04:18:16;;;;;;;13.85;6.68;;;;;;;17.41;64.63;98826.94;4923226;28;20054;-72
2023/08/22 04:20:43;;;;;;;11.75;7.10;;;;;;;17.36;64.71;98824.78;4939023;28;20406;-71
2023/08/22 04:23:12;;;;;;;12.25;8.50;;;;;;;17.33;64.82;98814.34;4939089;28;20041;-73
2023/08/22 04:25:41;;;;;;;12.68;8.00;;;;;;;17.39;65.20;98835.19;4956542;28;20501;-71
2023/08/22 04:28:08;;;;;;;15.63;7.80;;;;;;;17.51;65.15;98824.03;4923123;28;20046;-70
2023/08/22 04:30:58;;;;;;;12.68;8.50;;;;;;;17.94;64.25;98814.63;4939237;28;20050;-71
2023/08/22 04:33:24;;;;;;;12.85;8.43;;;;;;;18.27;63.30;98807.19;4939027;28;20053;-72
2023/08/22 04:35:52;;;;;;;14.65;9.65;;;;;;;18.43;62.04;98810.59;4939178;28;20413;-72
2023/08/22 04:38:24;;;;;;;14.07;8.43;;;;;;;18.35;61.41;98810.66;4922808;28;20045;-72
2023/08/22 04:40:53;;;;;;;16.17;9.60;;;;;;;18.30;61.58;98813.03;4938798;28;20501;-70
2023/08/22 04:46:14;;;;;;;17.67;9.15;;;;;;;18.55;61.75;98815.56;4939175;28;20552;-70
2023/08/22 04:48:40;;;;;;;14.00;9.98;;;;;;;18.64;61.39;98826.16;4938356;28;20409;-71
2023/08/22 04:51:05;;;;;;;15.45;9.95;;;;;;;18.66;60.51;98824.13;4938978;28;20057;-69
2023/08/22 04:53:34;;;;;;;16.83;10.25;;;;;;;18.70;60.55;98806.56;4923462;28;20050;-72
2023/08/22 04:56:00;;;;;;;18.73;10.50;;;;;;;18.77;60.42;98803.94;4922678;28;20038;-70
2023/08/22 04:58:27;;;;;;;12.20;9.15;;;;;;;18.94;60.36;98820.88;4937978;28;20058;-71
2023/08/22 05:00:54;;;;;;;16.73;10.00;;;;;;;19.14;59.78;98805.81;4919315;28;20453;-72
2023/08/22 05:03:19;;;;;;;16.80;11.00;;;;;;;19.32;59.09;98808.97;4919527;28;20050;-72
2023/08/22 05:05:48;;;;;;;18.02;10.57;;;;;;;19.52;58.61;98823.69;4934398;28;20061;-71
2023/08/22 05:08:20;;;;;;;17.52;9.45;;;;;;;19.55;58.13;98808.91;4922457;28;20081;-71
2023/08/22 05:10:52;;;;;;;17.83;9.27;;;;;;;19.61;58.08;98813.59;4922012;28;20054;-71
2023/08/22 05:13:20;;;;;;;19.02;9.80;;;;;;;19.66;58.29;98821.13;4906067;28;20050;-72
2023/08/22 05:15:46;;;;;;;14.77;9.93;;;;;;;19.62;58.54;98809.88;4938230;28;20552;-72
2023/08/22 05:18:39;;;;;;;13.27;9.75;;;;;;;19.88;58.25;98810.19;4923586;28;20049;-73
2023/08/22 05:21:04;;;;;;;21.05;11.20;;;;;;;19.74;57.96;98808.38;4955714;28;20142;-70
2023/08/22 05:23:32;;;;;;;23.88;10.30;;;;;;;19.70;57.70;98804.34;4938843;28;20049;-70
2023/08/22 05:26:00;;;;;;;24.40;11.15;;;;;;;19.70;58.10;98801.66;4939287;28;20448;-70
2023/08/22 05:28:28;;;;;;;15.10;10.43;;;;;;;19.80;58.32;98810.31;4957244;28;20548;-70
2023/08/22 05:30:54;;;;;;;14.48;9.52;;;;;;;19.85;58.58;98805.19;4922729;28;20045;-70
2023/08/22 05:33:20;;;;;;;17.42;10.35;;;;;;;19.91;58.77;98803.56;4918672;28;20062;-70
2023/08/22 05:35:51;;;;;;;23.25;10.82;;;;;;;19.95;59.02;98794.06;4937353;28;20828;-70
2023/08/22 05:38:17;;;;;;;17.05;10.48;;;;;;;19.92;58.81;98822.31;4903518;28;20058;-71
2023/08/22 05:40:42;;;;;;;27.38;11.35;;;;;;;19.84;58.88;98798.09;4922472;28;20046;-70
2023/08/22 05:43:32;;;;;;;22.27;12.13;;;;;;;19.89;58.98;98795.63;4955799;28;20046;-72
2023/08/22 05:46:00;;;;;;;23.05;11.57;;;;;;;19.75;59.18;98798.38;4938506;28;20386;-71
2023/08/22 05:48:27;;;;;;;17.05;9.20;;;;;;;19.75;59.39;98777.56;4922619;28;20061;-72
2023/08/22 05:50:56;;;;;;;19.00;10.77;;;;;;;19.78;59.59;98788.00;4938340;28;20053;-71
2023/08/22 05:53:22;;;;;;;17.80;9.52;;;;;;;19.80;59.44;98790.53;4906586;28;20054;-71
2023/08/22 05:58:46;;;;;;;20.80;11.32;;;;;;;20.00;59.06;98779.94;4938397;28;20073;-72
2023/08/22 06:01:37;;;;;;;22.30;10.50;;;;;;;20.06;58.85;98777.31;4937603;28;20057;-71
2023/08/22 06:04:08;;;;;;;26.45;11.65;;;;;;;20.09;58.46;98778.81;4954064;28;20417;-70
2023/08/22 06:06:34;;;;;;;20.92;11.65;;;;;;;20.07;58.22;98772.75;4955817;28;20045;-71
2023/08/22 06:09:03;;;;;;;27.10;12.63;;;;;;;20.06;58.05;98765.66;4955282;28;20053;-71
2023/08/22 06:11:30;;;;;;;20.77;11.32;;;;;;;20.06;58.01;98779.19;4955561;28;20042;-71
2023/08/22 06:13:56;;;;;;;29.13;13.90;;;;;;;20.21;58.10;98766.44;4937964;28;20061;-71
2023/08/22 06:16:22;;;;;;;23.02;11.93;;;;;;;20.49;58.08;98788.22;4922033;28;20054;-71
2023/08/22 06:18:50;;;;;;;27.70;11.75;;;;;;;20.81;57.37;98763.28;4956115;28;20046;-71
2023/08/22 06:21:16;;;;;;;27.63;12.75;;;;;;;21.23;56.05;98781.34;4941254;28;20069;-71
2023/08/22 06:23:47;;;;;;;31.42;11.90;;;;;;;22.09;54.30;98757.38;4957885;28;20046;-71
2023/08/22 06:26:41;;;;;;;19.63;10.52;;;;;;;22.95;52.14;98742.00;4957368;28;20077;-70
2023/08/22 06:29:07;;;;;;;28.70;12.50;;;;;;;23.01;50.73;98707.72;4958712;28;20149;-70
2023/08/22 06:31:33;;;;;;;22.55;12.55;;;;;;;22.77;50.58;98744.53;4957506;28;20053;-69
2023/08/22 06:34:00;;;;;;;23.63;11.98;;;;;;;22.37;50.50;98739.03;4921645;28;20053;-70
2023/08/22 06:36:27;;;;;;;21.33;10.43;;;;;;;22.19;50.58;98740.69;4922426;28;20424;-71
2023/08/22 06:38:52;;;;;;;19.50;10.52;;;;;;;22.03;51.46;98741.88;4921993;28;20057;-71
2023/08/22 06:41:19;;;;;;;20.55;10.30;;;;;;;21.99;51.60;98740.63;4928418;28;20408;-71
2023/08/22 06:43:53;;;;;;;21.08;9.85;;;;;;;22.16;51.87;98746.50;4941326;28;20868;-71
2023/08/22 06:46:44;;;;;;;18.35;9.88;;;;;;;22.49;51.39;98757.44;4940754;28;20058;-71
2023/08/22 06:49:09;;;;;;;20.15;9.60;;;;;;;22.76;50.72;98732.81;4924376;28;20054;-71
2023/08/22 06:51:35;;;;;;;24.15;10.20;;;;;;;23.02;49.71;98725.69;4958307;28;20409;-74
2023/08/22 06:54:00;;;;;;;23.67;10.45;;;;;;;23.09;49.00;98737.38;4958196;28;20046;-75
2023/08/22 06:56:26;;;;;;;27.40;10.68;;;;;;;23.06;49.35;98721.50;4908714;28;20054;-74
2023/08/22 06:58:52;;;;;;;22.25;10.18;;;;;;;23.02;49.70;98712.94;4958237;28;20054;-74
2023/08/22 07:01:19;;;;;;;17.63;10.25;;;;;;;23.08;49.39;98720.25;4924431;28;20061;-75
2023/08/22 07:04:10;;;;;;;22.08;9.57;;;;;;;23.32;49.36;98716.00;4959117;28;20045;-77
2023/08/22 07:06:36;;;;;;;18.58;8.90;;;;;;;23.24;49.16;98723.56;4958749;28;20501;-75
2023/08/22 07:09:03;;;;;;;19.20;10.15;;;;;;;23.29;49.45;98721.03;4941429;28;20057;-75
2023/08/22 07:11:57;;;;;;;22.65;9.68;;;;;;;23.39;48.94;98710.53;4921725;28;20510;-76
2023/08/22 07:14:27;;;;;;;17.95;8.70;;;;;;;23.47;48.48;98713.03;4941166;28;20058;-75
2023/08/22 07:16:52;;;;;;;26.30;8.55;;;;;;;23.62;48.06;98704.63;4940862;28;20054;-75
2023/08/22 07:19:20;;;;;;;20.13;9.90;;;;;;;23.78;47.56;98691.38;4923275;28;20043;-77
2023/08/22 07:21:47;;;;;;;20.60;9.48;;;;;;;24.10;47.00;98703.09;4923817;28;20506;-76
2023/08/22 07:27:06;;;;;;;16.83;8.65;;;;;;;25.24;44.58;98700.09;4940016;28;20046;-75
2023/08/22 07:29:33;;;;;;;15.93;8.48;;;;;;;25.37;43.04;98688.19;4906435;28;20062;-75
2023/08/22 07:31:59;;;;;;;12.48;7.10;;;;;;;25.26;42.01;98697.13;4940455;28;20051;-76
2023/08/22 07:34:32;;;;;;;14.57;6.80;;;;;;;24.88;41.12;98705.47;4924065;28;20692;-77
2023/08/22 07:36:58;;;;;;;10.00;6.07;;;;;;;24.50;41.27;98709.13;4940337;28;20039;-76
2023/08/22 07:39:23;;;;;;;12.30;7.18;;;;;;;24.17;42.12;98703.06;4939026;28;20050;-75
2023/08/22 07:42:16;;;;;;;11.90;5.70;;;;;;;23.77;42.26;98702.47;4943880;28;20042;-71
2023/08/22 07:45:08;;;;;;;8.88;5.38;;;;;;;23.53;41.67;98707.59;4957321;28;20050;-70
2023/08/22 07:47:35;;;;;;;14.05;6.65;;;;;;;23.41;42.72;98692.94;4957482;28;20045;-73
2023/08/22 07:50:03;;;;;;;12.25;5.93;;;;;;;23.45;42.12;98698.81;4924641;28;20405;-72
2023/08/22 07:52:59;;;;;;;10.38;5.35;;;;;;;23.63;42.26;98695.41;4958112;28;20061;-73
2023/08/22 07:55:26;;;;;;;7.20;5.57;;;;;;;23.70;41.51;98690.78;4939978;28;20046;-72
2023/08/22 07:58:16;;;;;;;7.90;5.20;;;;;;;23.86;41.68;98692.97;4958200;28;20053;-74
2023/08/22 08:00:47;;;;;;;6.72;4.53;;;;;;;23.83;40.48;98696.13;4940952;28;20043;-74
2023/08/22 08:03:15;;;;;;;8.93;5.25;;;;;;;23.94;40.90;98698.16;4901227;29;20047;-75
2023/08/22 08:08:34;;;;;;;5.00;3.55;;;;;;;23.98;39.75;98710.31;4900876;29;20051;-75
2023/08/22 08:10:59;;;;;;;7.38;4.20;;;;;;;23.89;39.33;98684.38;4900984;29;20051;-75
2023/08/22 08:13:28;;;;;;;8.68;4.00;;;;;;;23.83;39.11;98693.41;4901031;28;20059;-75
2023/08/22 08:15:54;;;;;;;7.63;4.88;;;;;;;23.74;39.85;98714.59;4918924;28;20054;-75
2023/08/22 08:18:22;;;;;;;7.63;4.68;;;;;;;23.67;40.41;98692.03;4936054;28;20530;-76
2023/08/22 08:20:53;;;;;;;8.40;4.22;;;;;;;23.85;41.97;98716.66;4936204;28;20050;-74
2023/08/22 08:23:22;;;;;;;11.50;6.13;;;;;;;23.96;41.68;98701.50;4934842;28;20418;-74
2023/08/22 08:25:53;;;;;;;9.15;4.97;;;;;;;24.18;41.22;98705.56;4919283;28;20046;-74
2023/08/22 08:28:23;;;;;;;9.27;5.60;;;;;;;24.29;40.81;98705.94;4934951;28;20051;-75
2023/08/22 08:31:14;;;;;;;9.70;5.40;;;;;;;24.64;41.23;98698.13;4918886;28;20501;-73
2023/08/22 08:33:40;;;;;;;10.68;5.18;;;;;;;24.64;41.81;98692.66;4928011;28;20061;-73
2023/08/22 08:36:07;;;;;;;12.40;6.63;;;;;;;24.71;41.17;98705.22;4958432;28;20048;-74
2023/08/22 08:41:27;;;;;;;9.93;6.53;;;;;;;24.43;42.03;98708.34;4959015;28;20072;-74
2023/08/22 08:43:53;;;;;;;10.73;6.38;;;;;;;24.24;42.61;98693.00;4930975;28;20074;-75
2023/08/22 08:46:18;;;;;;;10.52;6.38;;;;;;;24.05;42.64;98710.25;4942998;28;20039;-76
2023/08/22 08:49:14;;;;;;;10.77;6.50;;;;;;;24.02;43.32;98695.22;4925687;28;20055;-78
2023/08/22 08:57:27;;;;;;;11.23;5.63;;;;;;;23.13;45.31;98692.44;4939935;28;20042;-78
2023/08/22 08:59:53;;;;;;;10.48;5.72;;;;;;;22.95;46.32;98678.66;4939486;28;20047;-77
2023/08/22 09:02:20;;;;;;;12.43;6.15;;;;;;;22.82;46.73;98676.78;4940082;28;20035;-76
2023/08/22 09:04:49;;;;;;;14.73;7.18;;;;;;;22.68;47.21;98707.72;4960502;28;20045;-78
2023/08/22 09:07:20;;;;;;;13.05;6.70;;;;;;;22.54;47.24;98696.03;4925036;28;20425;-77
2023/08/22 09:09:49;;;;;;;11.60;6.03;;;;;;;22.40;47.91;98697.06;4959813;28;20049;-77
2023/08/22 09:12:20;;;;;;;21.33;7.65;;;;;;;22.31;48.66;98696.44;4963958;28;20054;-77
2023/08/22 09:14:51;;;;;;;14.55;6.68;;;;;;;22.21;48.59;98722.31;4963366;28;20457;-77
2023/08/22 09:17:17;;;;;;;13.23;6.70;;;;;;;22.07;48.77;98706.00;4964688;28;20591;-75
2023/08/22 09:19:47;;;;;;;13.82;6.10;;;;;;;22.04;49.62;98709.13;4944499;28;20042;-77
2023/08/22 09:22:15;;;;;;;14.68;7.38;;;;;;;21.96;49.96;98703.84;4938966;28;20049;-77
2023/08/22 09:24:52;;;;;;;15.05;7.55;;;;;;;22.02;50.92;98707.63;4956000;28;20042;-76
2023/08/22 09:27:24;;;;;;;16.95;8.48;;;;;;;21.90;52.04;98710.09;4955624;28;20053;-77
2023/08/22 09:29:52;;;;;;;18.70;7.47;;;;;;;21.85;52.00;98712.59;4938954;28;20413;-77
2023/08/22 09:32:22;;;;;;;20.67;8.48;;;;;;;21.83;52.64;98706.53;4956236;28;20540;-76
2023/08/22 09:34:54;;;;;;;11.95;7.40;;;;;;;21.81;52.66;98715.91;4937662;28;20058;-77
2023/08/22 09:37:40;;;;;;;16.80;8.82;;;;;;;21.78;53.83;98706.31;4956225;28;20042;-76
2023/08/22 09:40:09;;;;;;;17.40;9.23;;;;;;;21.55;54.50;98722.09;4922706;28;20061;-76
2023/08/22 09:42:41;;;;;;;17.40;9.55;;;;;;;21.31;55.31;98748.66;4956641;28;20042;-76
2023/08/22 09:45:10;;;;;;;18.60;10.05;;;;;;;21.10;56.88;98726.19;4939157;28;20740;-76
2023/08/22 09:48:05;;;;;;;15.77;9.48;;;;;;;20.88;57.10;98733.56;4950689;28;20030;-77
2023/08/22 09:50:40;;;;;;;17.35;9.07;;;;;;;20.77;57.95;98739.50;4959503;28;20057;-79
2023/08/22 09:53:06;;;;;;;18.73;10.23;;;;;;;20.54;58.97;98727.00;4958560;28;20038;-78
2023/08/22 09:55:34;;;;;;;23.92;9.93;;;;;;;20.44;59.79;98731.09;4942445;28;20065;-78
2023/08/22 09:58:29;;;;;;;17.75;10.00;;;;;;;20.38;60.80;98745.41;4943758;28;20743;-78
2023/08/22 10:00:57;;;;;;;16.33;11.23;;;;;;;20.20;61.62;98737.72;4945601;28;20046;-78
2023/08/22 10:03:30;;;;;;;19.67;10.77;;;;;;;20.13;61.67;98732.22;4954805;28;20047;-78
2023/08/22 10:05:59;;;;;;;17.58;10.27;;;;;;;20.12;62.47;98740.53;4945334;28;20054;-77
2023/08/22 10:08:29;;;;;;;16.98;10.30;;;;;;;20.14;62.06;98723.06;4925789;28;20494;-76
2023/08/22 10:10:58;;;;;;;18.98;9.93;;;;;;;20.25;61.74;98725.28;4941105;28;20050;-77
2023/08/22 10:13:26;;;;;;;14.77;9.63;;;;;;;20.34;61.13;98707.03;4946315;28;20377;-75
2023/08/22 10:15:55;;;;;;;24.00;10.43;;;;;;;20.44;60.58;98733.78;4940465;28;20066;-76
2023/08/22 10:18:26;;;;;;;;;;;;;;;20.77;60.25;98742.22;4943788;28;20049;-73
2023/08/22 10:20:56;;;;;;;19.05;8.77;;;;;;;20.66;59.90;98735.44;4938864;28;20471;-73
2023/08/22 10:23:44;;;;;;;15.32;9.18;;;;;;;20.68;60.44;98736.09;4937933;28;20050;-73
2023/08/22 10:26:15;;;;;;;22.58;9.93;;;;;;;20.58;60.20;98727.47;4943471;28;20043;-72
2023/08/22 10:28:43;;;;;;;16.55;10.35;;;;;;;20.50;60.09;98738.44;4943657;28;20045;-74
2023/08/22 10:31:13;;;;;;;16.23;9.73;;;;;;;20.38;59.83;98735.41;4942273;28;20042;-74
2023/08/22 10:33:42;;;;;;;18.08;9.75;;;;;;;20.35;59.73;98748.47;4908892;28;20061;-73
2023/08/22 10:39:37;;;;;;;15.07;8.80;;;;;;;20.45;60.12;98741.72;4942005;28;20050;-71
2023/08/22 10:42:13;;;;;;;18.30;8.70;;;;;;;20.39;59.27;98742.50;4956165;28;20046;-78
2023/08/22 10:44:40;;;;;;;14.88;8.43;;;;;;;20.34;59.05;98761.16;4906935;28;20069;-78
2023/08/22 10:47:27;;;;;;;13.10;7.90;;;;;;;20.50;58.98;98738.44;4923519;28;20046;-76
2023/08/22 10:49:53;;;;;;;15.93;7.50;;;;;;;20.42;58.48;98742.13;4940692;28;20057;-76
2023/08/22 10:52:37;;;;;;;14.10;8.20;;;;;;;20.58;58.32;98738.28;4916541;28;20058;-75
2023/08/22 10:55:12;;;;;;;15.52;8.13;;;;;;;20.73;58.06;98744.47;4938663;28;20046;-76
2023/08/22 10:57:37;;;;;;;18.80;8.73;;;;;;;20.88;57.86;98741.69;4941217;28;20050;-77
2023/08/22 11:00:13;;;;;;;14.50;8.02;;;;;;;21.03;57.41;98737.81;4958130;28;20034;-82
2023/08/22 11:02:43;;;;;;;11.30;7.35;;;;;;;21.16;56.78;98739.78;4950809;28;20046;-81
2023/08/22 11:05:13;;;;;;;15.10;7.78;;;;;;;21.32;56.84;98760.34;4925647;28;20057;-81
2023/08/22 11:07:46;;;;;;;16.17;8.82;;;;;;;21.42;56.20;98733.72;4932953;28;20066;-82
2023/08/22 11:10:16;;;;;;;12.82;7.25;;;;;;;21.59;55.67;98745.88;4948999;28;20054;-80
2023/08/22 11:12:43;;;;;;;10.38;6.95;;;;;;;21.67;55.83;98720.47;4943165;28;20049;-80
2023/08/22 11:15:14;;;;;;;11.85;7.45;;;;;;;21.78;55.54;98738.88;4931299;28;20058;-78
2023/08/22 11:17:43;;;;;;;16.17;7.03;;;;;;;21.80;54.97;98757.63;4945905;28;20066;-80
2023/08/22 11:20:12;;;;;;;15.32;7.90;;;;;;;21.89;54.92;98723.88;4934236;28;20046;-80
2023/08/22 11:22:47;;;;;;;13.43;7.65;;;;;;;21.88;53.74;98733.91;4950984;28;20049;-79
2023/08/22 11:25:23;;;;;;;12.45;8.07;;;;;;;21.88;53.69;98739.31;4941942;28;21235;-73
2023/08/22 11:30:42;;;;;;;15.40;10.32;;;;;;;22.01;53.77;98744.81;4923371;28;20050;-77
2023/08/22 11:33:19;;;;;;;14.35;8.25;;;;;;;22.17;53.70;98729.19;4896254;28;20059;-76
2023/08/22 11:35:50;;;;;;;13.32;7.95;;;;;;;22.01;52.31;98728.50;4943074;28;20054;-77
2023/08/22 11:38:16;;;;;;;12.23;6.68;;;;;;;21.85;52.17;98728.03;4941815;28;20050;-78
2023/08/22 11:40:43;;;;;;;11.85;6.60;;;;;;;21.67;52.36;98732.13;4941873;28;20043;-68
2023/08/22 11:43:10;;;;;;;12.10;6.88;;;;;;;21.59;52.80;98729.59;4922343;28;20549;-70
2023/08/22 11:45:48;;;;;;;13.30;6.50;;;;;;;21.67;52.68;98715.84;4942708;28;20049;-69
2023/08/22 11:48:16;;;;;;;11.23;6.95;;;;;;;21.63;52.44;98713.75;4923945;28;20893;-68
2023/08/22 11:50:43;;;;;;;8.55;6.32;;;;;;;21.64;52.21;98726.28;4939686;28;20413;-73
2023/08/22 11:53:11;;;;;;;9.15;6.70;;;;;;;21.53;51.59;98727.72;4903568;28;20054;-71
2023/08/22 11:55:45;;;;;;;9.07;5.97;;;;;;;21.38;52.41;98743.25;4939553;28;20050;-68
2023/08/22 11:58:15;;;;;;;10.40;6.07;;;;;;;21.20;52.77;98724.00;4956504;28;20046;-69
2023/08/22 12:00:42;;;;;;;9.93;6.00;;;;;;;21.03;53.26;98750.53;4934397;28;20049;-71
2023/08/22 12:03:09;;;;;;;10.23;6.65;;;;;;;20.78;54.31;98742.00;4940408;28;20047;-71
2023/08/22 12:05:38;;;;;;;9.18;6.32;;;;;;;20.63;54.92;98725.84;4924288;28;20038;-72
2023/08/22 12:08:07;;;;;;;13.05;6.25;;;;;;;20.62;55.01;98726.06;4920345;28;20050;-71
2023/08/22 12:10:53;;;;;;;9.45;5.55;;;;;;;20.57;54.87;98740.16;4938823;28;20035;-71
2023/08/22 12:13:23;;;;;;;9.95;5.93;;;;;;;20.38;54.89;98718.34;4936586;28;20061;-70
2023/08/22 12:15:51;;;;;;;16.40;6.68;;;;;;;20.12;55.32;98724.28;4915567;28;20046;-70
2023/08/22 12:18:19;;;;;;;10.50;7.30;;;;;;;19.97;56.12;98720.81;4903106;29;20051;-70
2023/08/22 12:20:48;;;;;;;11.57;6.50;;;;;;;19.87;56.54;98731.94;4904614;28;20053;-70
2023/08/22 12:23:16;;;;;;;9.52;6.22;;;;;;;19.78;56.93;98738.50;4924101;28;20047;-70